Bellevue, Nebraska
Current Conditions -  °F | °C
As of 12:04 AM on Thursday 23 Oct 2014 (Local Time) from KOFF Reporting Station
Broken Clouds Broken Clouds  
Wind Chill: 63°   Ceiling: 5500
Heat Index: 63°   Visibility: 10mi
Dew Point: 63°   Wind: 10mph
Humidity: 100%   Direction: 160°SSE
Pressure: 30.04"   Gusts: NA
Location:  41.14°N, 95.89°W
Report Text: KOFF 230504Z AUTO 16009KT 10SM FEW008 BKN055 17/17 A3004 RMK AO2 RAE0459
Loading
Personal Weather Stations






























Interactive Weather Map
Tropical Storm Tracking
New forecast layout! Learn more

10-Day Weather Forecast

Advertisements
Track Severe Weather on mobile